createdAt,value
2023-02-28T00:01:41.766Z,4.90
2023-02-28T00:04:11.218Z,5.35
2023-02-28T00:06:39.502Z,3.63
2023-02-28T00:09:08.055Z,4.60
2023-02-28T00:11:36.328Z,5.80
2023-02-28T00:14:04.639Z,5.07
2023-02-28T00:16:34.357Z,4.53
2023-02-28T00:19:02.627Z,4.10
2023-02-28T00:21:31.041Z,5.05
2023-02-28T00:23:59.515Z,4.15
2023-02-28T00:26:27.793Z,6.32
2023-02-28T00:28:56.439Z,3.78
2023-02-28T00:31:24.701Z,4.25
2023-02-28T00:33:54.405Z,4.97
2023-02-28T00:36:22.903Z,5.07
2023-02-28T00:38:51.221Z,5.97
2023-02-28T00:41:19.732Z,3.88
2023-02-28T00:43:49.425Z,5.10
2023-02-28T00:46:17.814Z,4.32
2023-02-28T00:48:46.193Z,4.57
2023-02-28T00:51:16.047Z,5.20
2023-02-28T00:53:44.285Z,5.45
2023-02-28T00:56:12.541Z,5.45
2023-02-28T00:58:40.978Z,4.53
2023-02-28T01:01:09.553Z,5.22
2023-02-28T01:03:40.397Z,4.83
2023-02-28T01:06:08.989Z,4.68
2023-02-28T01:08:38.536Z,4.78
2023-02-28T01:11:11.491Z,6.97
2023-02-28T01:13:42.381Z,6.03
2023-02-28T01:16:10.706Z,5.43
2023-02-28T01:18:39.774Z,4.63
2023-02-28T01:21:08.177Z,4.03
2023-02-28T01:23:37.812Z,4.47
2023-02-28T01:26:07.233Z,4.03
2023-02-28T01:28:35.773Z,4.63
2023-02-28T01:31:04.593Z,4.30
2023-02-28T01:33:32.912Z,5.15
2023-02-28T01:36:01.875Z,4.45
2023-02-28T01:38:31.902Z,6.25
2023-02-28T01:41:01.808Z,3.65
2023-02-28T01:43:32.164Z,6.30
2023-02-28T01:46:01.581Z,4.93
2023-02-28T01:48:33.481Z,4.15
2023-02-28T01:51:05.365Z,5.32
2023-02-28T01:53:38.130Z,6.30
2023-02-28T01:56:10.589Z,5.45
2023-02-28T01:58:42.088Z,5.35
2023-02-28T02:03:38.658Z,3.92
2023-02-28T02:06:07.314Z,4.45
2023-02-28T02:08:39.216Z,4.00
2023-02-28T02:11:13.881Z,4.05
2023-02-28T02:14:11.596Z,3.95
2023-02-28T02:16:52.142Z,5.40
2023-02-28T02:19:55.817Z,7.05
2023-02-28T02:22:47.521Z,6.35
2023-02-28T02:25:29.919Z,5.32
2023-02-28T02:28:30.006Z,5.53
2023-02-28T02:31:34.453Z,5.25
2023-02-28T02:34:29.117Z,4.75
2023-02-28T02:37:10.940Z,4.20
2023-02-28T02:39:51.101Z,4.28
2023-02-28T02:42:27.817Z,6.63
2023-02-28T02:45:02.195Z,5.65
2023-02-28T02:47:33.041Z,5.00
2023-02-28T02:50:07.514Z,4.18
2023-02-28T02:52:41.297Z,5.32
2023-02-28T02:55:13.119Z,4.57
2023-02-28T02:57:48.103Z,6.05
2023-02-28T03:00:20.571Z,3.80
2023-02-28T03:02:50.914Z,5.85
2023-02-28T03:05:23.955Z,6.32
2023-02-28T03:07:52.344Z,4.60
2023-02-28T03:10:33.798Z,4.75
2023-02-28T03:13:21.646Z,6.78
2023-02-28T03:16:21.284Z,6.03
2023-02-28T03:18:56.969Z,5.70
2023-02-28T03:21:34.914Z,7.05
2023-02-28T03:24:09.254Z,5.00
2023-02-28T03:26:44.898Z,5.47
2023-02-28T03:29:19.255Z,5.03
2023-02-28T03:31:53.873Z,5.18
2023-02-28T03:34:31.132Z,4.85
2023-02-28T03:37:05.981Z,5.10
2023-02-28T03:39:41.501Z,5.25
2023-02-28T03:42:13.804Z,6.20
2023-02-28T03:44:45.248Z,7.57
2023-02-28T03:47:17.110Z,4.88
2023-02-28T03:49:49.961Z,4.85
2023-02-28T03:52:24.880Z,7.13
2023-02-28T03:54:56.693Z,5.35
2023-02-28T03:57:31.998Z,5.13
2023-02-28T04:00:05.266Z,5.13
2023-02-28T04:02:40.773Z,5.50
2023-02-28T04:05:09.984Z,5.97
2023-02-28T04:07:39.900Z,6.07
2023-02-28T04:10:09.399Z,5.22
2023-02-28T04:12:37.542Z,6.40
2023-02-28T04:15:06.780Z,4.50
2023-02-28T04:17:34.982Z,6.13
2023-02-28T04:20:03.869Z,5.22
2023-02-28T04:22:32.355Z,6.90
2023-02-28T04:25:02.012Z,6.25
2023-02-28T04:27:32.480Z,6.25
2023-02-28T04:30:01.111Z,6.40
2023-02-28T04:32:29.341Z,6.50
2023-02-28T04:34:57.789Z,8.13
2023-02-28T04:37:29.779Z,6.38
2023-02-28T04:39:58.068Z,8.10
2023-02-28T04:42:27.687Z,7.28
2023-02-28T04:44:55.913Z,6.22
2023-02-28T04:47:24.115Z,6.70
2023-02-28T04:49:52.344Z,7.90
2023-02-28T04:52:21.038Z,8.32
2023-02-28T04:54:49.286Z,7.20
2023-02-28T04:57:17.645Z,8.00
2023-02-28T04:59:47.197Z,8.07
2023-02-28T05:02:15.866Z,6.55
2023-02-28T05:04:44.354Z,6.72
2023-02-28T05:07:12.555Z,7.43
2023-02-28T05:09:40.870Z,8.15
2023-02-28T05:12:10.867Z,7.18
2023-02-28T05:14:39.019Z,7.95
2023-02-28T05:17:08.601Z,6.85
2023-02-28T05:19:36.834Z,8.98
2023-02-28T05:22:05.061Z,7.80
2023-02-28T05:24:33.691Z,8.40
2023-02-28T05:27:02.116Z,8.20
2023-02-28T05:29:30.366Z,9.43
2023-02-28T05:31:58.646Z,10.23
2023-02-28T05:34:28.321Z,9.45
2023-02-28T05:36:56.744Z,8.85
2023-02-28T05:39:24.930Z,8.23
2023-02-28T05:41:53.122Z,10.63
2023-02-28T05:44:21.373Z,8.63
2023-02-28T05:46:50.465Z,10.85
2023-02-28T05:49:18.838Z,10.70
2023-02-28T05:51:48.416Z,10.02
2023-02-28T05:54:16.719Z,9.85
2023-02-28T06:00:33.313Z,11.70
2023-02-28T06:03:03.150Z,10.07
2023-02-28T06:05:31.480Z,10.32
2023-02-28T06:08:01.391Z,10.60
2023-02-28T06:10:29.671Z,10.45
2023-02-28T06:12:57.871Z,10.70
2023-02-28T06:15:27.068Z,12.50
2023-02-28T06:17:57.202Z,12.60
2023-02-28T06:20:27.109Z,12.15
2023-02-28T06:22:56.941Z,12.45
2023-02-28T06:25:26.735Z,11.95
2023-02-28T06:27:55.654Z,11.77
2023-02-28T06:30:26.283Z,12.20
2023-02-28T06:32:54.802Z,11.67
2023-02-28T06:35:23.432Z,11.25
2023-02-28T06:37:51.775Z,12.90
2023-02-28T06:40:20.135Z,13.25
2023-02-28T06:42:49.685Z,14.60
2023-02-28T06:45:17.989Z,13.05
2023-02-28T06:47:46.366Z,12.77
2023-02-28T06:50:15.006Z,14.05
2023-02-28T06:52:43.215Z,12.88
2023-02-28T06:55:11.818Z,13.63
2023-02-28T06:57:40.177Z,13.10
2023-02-28T07:00:11.813Z,13.20
2023-02-28T07:02:40.398Z,17.60
2023-02-28T07:05:09.188Z,14.40
2023-02-28T07:07:39.488Z,15.82
2023-02-28T07:10:08.554Z,14.98
2023-02-28T07:12:38.228Z,14.10
2023-02-28T07:15:07.574Z,15.13
2023-02-28T07:17:37.166Z,15.30
2023-02-28T07:20:06.152Z,14.35
2023-02-28T07:22:34.400Z,13.32
2023-02-28T07:25:02.797Z,14.75
2023-02-28T07:27:31.052Z,14.48
2023-02-28T07:30:02.534Z,15.05
2023-02-28T07:35:00.243Z,14.48
2023-02-28T07:37:28.449Z,14.18
2023-02-28T07:39:56.697Z,14.07
2023-02-28T07:42:25.113Z,14.75
2023-02-28T07:44:54.433Z,16.05
2023-02-28T07:47:25.335Z,16.90
2023-02-28T07:49:53.755Z,15.43
2023-02-28T07:52:24.566Z,14.45
2023-02-28T07:54:53.342Z,14.43
2023-02-28T07:57:21.576Z,13.30
2023-02-28T07:59:49.854Z,15.10
2023-02-28T08:02:19.695Z,16.00
2023-02-28T08:04:48.998Z,13.70
2023-02-28T08:07:17.767Z,16.02
2023-02-28T08:09:47.480Z,16.70
2023-02-28T08:12:15.965Z,14.45
2023-02-28T08:14:44.219Z,14.57
2023-02-28T08:17:13.348Z,12.27
2023-02-28T08:19:41.595Z,13.85
2023-02-28T08:22:09.850Z,12.88
2023-02-28T08:24:38.189Z,12.93
2023-02-28T08:27:07.786Z,14.07
2023-02-28T08:29:35.980Z,14.90
2023-02-28T08:32:04.261Z,15.50
2023-02-28T08:34:32.670Z,15.65
2023-02-28T08:37:01.369Z,12.80
2023-02-28T08:39:29.597Z,12.38
2023-02-28T08:42:07.278Z,14.90
2023-02-28T08:44:37.535Z,15.50
2023-02-28T08:47:05.842Z,14.88
2023-02-28T08:49:34.444Z,15.70
2023-02-28T08:52:02.781Z,14.18
2023-02-28T08:54:32.471Z,16.35
2023-02-28T08:57:00.893Z,14.82
2023-02-28T08:59:29.239Z,13.98
2023-02-28T09:01:58.875Z,12.93
2023-02-28T09:04:27.195Z,13.63
2023-02-28T09:06:55.512Z,15.10
2023-02-28T09:09:23.737Z,16.50
2023-02-28T09:11:51.983Z,14.40
2023-02-28T09:14:20.810Z,15.27
2023-02-28T09:16:49.142Z,13.73
2023-02-28T09:19:18.764Z,15.77
2023-02-28T09:21:47.012Z,15.93
2023-02-28T09:24:16.356Z,13.60
2023-02-28T09:26:56.281Z,15.18
2023-02-28T09:29:32.611Z,16.10
2023-02-28T09:32:01.125Z,12.88
2023-02-28T09:34:32.364Z,16.52
2023-02-28T09:37:00.627Z,13.45
2023-02-28T09:39:29.729Z,14.13
2023-02-28T09:41:58.810Z,14.93
2023-02-28T09:44:32.534Z,14.18
2023-02-28T09:47:06.614Z,15.95
2023-02-28T09:49:41.548Z,15.68
2023-02-28T09:52:14.734Z,16.63
2023-02-28T09:54:43.230Z,15.10
2023-02-28T09:57:19.484Z,13.73
2023-02-28T09:59:58.688Z,14.13
2023-02-28T10:02:52.856Z,14.52
2023-02-28T10:05:26.749Z,14.98
2023-02-28T10:08:06.133Z,16.73
2023-02-28T10:10:40.467Z,15.13
2023-02-28T10:13:17.963Z,14.65
2023-02-28T10:15:48.648Z,16.30
2023-02-28T10:18:22.775Z,17.98
2023-02-28T10:20:53.615Z,14.70
2023-02-28T10:23:24.394Z,14.93
2023-02-28T10:25:57.199Z,15.10
2023-02-28T10:28:28.583Z,17.02
2023-02-28T10:30:57.494Z,16.40
2023-02-28T10:33:29.759Z,15.90
2023-02-28T10:35:59.970Z,14.88
2023-02-28T10:38:30.959Z,15.60
2023-02-28T10:41:10.586Z,16.67
2023-02-28T10:43:39.774Z,16.05
2023-02-28T10:46:27.146Z,16.83
2023-02-28T10:49:05.549Z,16.90
2023-02-28T10:51:40.235Z,15.15
2023-02-28T10:54:16.727Z,18.15
2023-02-28T10:56:45.105Z,16.02
2023-02-28T10:59:31.206Z,16.70
2023-02-28T11:02:00.119Z,16.38
2023-02-28T11:04:38.883Z,15.73
2023-02-28T11:07:20.761Z,14.13
2023-02-28T11:09:52.238Z,16.48
2023-02-28T11:12:27.781Z,15.07
2023-02-28T11:14:58.729Z,15.50
2023-02-28T11:17:29.830Z,14.70
2023-02-28T11:20:03.716Z,18.25
2023-02-28T11:22:38.706Z,18.50
2023-02-28T11:25:12.617Z,14.98
2023-02-28T11:27:50.531Z,17.15
2023-02-28T11:30:44.115Z,15.27
2023-02-28T11:33:30.490Z,18.80
2023-02-28T11:36:02.589Z,17.02
2023-02-28T11:38:35.604Z,15.85
2023-02-28T11:41:33.025Z,15.13
2023-02-28T11:44:25.340Z,16.15
2023-02-28T11:46:56.645Z,15.82
2023-02-28T11:49:37.023Z,16.95
2023-02-28T11:52:17.542Z,16.17
2023-02-28T11:55:14.300Z,18.05
2023-02-28T11:57:58.268Z,17.92
2023-02-28T12:00:44.354Z,17.33
2023-02-28T12:03:23.964Z,15.85
2023-02-28T12:06:01.146Z,16.77
2023-02-28T12:08:44.478Z,17.10
2023-02-28T12:11:23.013Z,14.05
2023-02-28T12:14:06.055Z,14.25
2023-02-28T12:16:55.342Z,16.77
2023-02-28T12:19:28.627Z,15.55
2023-02-28T12:22:24.436Z,15.93
2023-02-28T12:25:32.629Z,17.20
2023-02-28T12:28:02.550Z,16.65
2023-02-28T12:30:33.082Z,15.98
2023-02-28T12:33:08.246Z,18.20
2023-02-28T12:35:40.884Z,16.02
2023-02-28T12:38:15.042Z,15.77
2023-02-28T12:40:48.336Z,18.50
2023-02-28T12:43:19.977Z,15.20
2023-02-28T12:45:52.397Z,17.77
2023-02-28T12:48:28.050Z,18.75
2023-02-28T12:50:56.800Z,19.23
2023-02-28T12:53:32.677Z,13.98
2023-02-28T12:56:12.108Z,15.23
2023-02-28T12:58:45.210Z,17.15
2023-02-28T13:01:41.152Z,13.90
2023-02-28T13:04:29.411Z,14.02
2023-02-28T13:07:14.959Z,15.23
2023-02-28T13:09:43.682Z,13.93
2023-02-28T13:12:16.354Z,13.32
2023-02-28T13:14:46.038Z,15.52
2023-02-28T13:17:20.136Z,14.10
2023-02-28T13:19:59.873Z,13.27
2023-02-28T13:22:43.466Z,14.68
2023-02-28T13:25:55.709Z,16.10
2023-02-28T13:29:09.292Z,14.82
2023-02-28T13:32:10.581Z,15.73
2023-02-28T13:34:41.736Z,14.82
2023-02-28T13:37:36.623Z,13.57
2023-02-28T13:40:30.378Z,12.35
2023-02-28T13:42:58.654Z,13.15
2023-02-28T13:45:29.182Z,16.60
2023-02-28T13:48:01.520Z,13.88
2023-02-28T13:50:34.934Z,14.40
2023-02-28T13:53:39.608Z,15.35
2023-02-28T13:56:20.815Z,13.82
2023-02-28T13:58:57.599Z,14.77
2023-02-28T14:01:54.928Z,14.95
2023-02-28T14:04:52.689Z,13.60
2023-02-28T14:07:25.370Z,13.60
2023-02-28T14:09:59.589Z,12.82
2023-02-28T14:12:56.649Z,14.15
2023-02-28T14:15:50.319Z,17.50
2023-02-28T14:18:28.536Z,14.63
2023-02-28T14:21:18.486Z,13.40
2023-02-28T14:24:11.496Z,13.75
2023-02-28T14:27:11.326Z,12.23
2023-02-28T14:30:08.031Z,16.52
2023-02-28T14:32:43.966Z,15.25
2023-02-28T14:35:22.757Z,15.65
2023-02-28T14:37:51.458Z,14.60
2023-02-28T14:40:27.441Z,15.05
2023-02-28T14:42:59.098Z,15.40
2023-02-28T14:47:58.599Z,16.13
2023-02-28T14:50:31.192Z,15.10
2023-02-28T14:53:00.904Z,13.82
2023-02-28T14:55:32.675Z,12.80
2023-02-28T14:58:03.892Z,15.60
2023-02-28T15:00:33.336Z,16.25
2023-02-28T15:03:03.813Z,13.60
2023-02-28T15:05:33.738Z,12.07
2023-02-28T15:08:14.204Z,16.30
2023-02-28T15:10:45.855Z,14.18
2023-02-28T15:13:17.076Z,12.85
2023-02-28T15:16:02.016Z,16.13
2023-02-28T15:18:43.000Z,13.02
2023-02-28T15:21:16.306Z,11.50
2023-02-28T15:23:48.938Z,11.82
2023-02-28T15:26:22.657Z,12.93
2023-02-28T15:29:02.215Z,13.63
2023-02-28T15:31:46.773Z,13.27
2023-02-28T15:34:26.477Z,10.95
2023-02-28T15:36:56.879Z,13.15
2023-02-28T15:39:27.958Z,14.70
2023-02-28T15:42:19.905Z,12.63
2023-02-28T15:44:48.555Z,12.88
2023-02-28T15:47:21.114Z,13.57
2023-02-28T15:49:52.743Z,14.45
2023-02-28T15:52:34.088Z,12.15
2023-02-28T15:55:11.186Z,14.25
2023-02-28T15:57:42.181Z,12.30
2023-02-28T16:00:15.565Z,12.85
2023-02-28T16:02:44.364Z,14.43
2023-02-28T16:05:33.265Z,12.60
2023-02-28T16:08:14.592Z,13.05
2023-02-28T16:10:43.255Z,13.85
2023-02-28T16:13:16.232Z,15.25
2023-02-28T16:15:45.894Z,15.93
2023-02-28T16:18:14.611Z,13.20
2023-02-28T16:20:45.494Z,13.02
2023-02-28T16:23:13.882Z,16.15
2023-02-28T16:25:45.783Z,15.25
2023-02-28T16:30:49.240Z,13.80
2023-02-28T16:33:17.578Z,14.77
2023-02-28T16:35:45.870Z,14.85
2023-02-28T16:38:14.066Z,16.83
2023-02-28T16:40:42.638Z,12.55
2023-02-28T16:43:22.134Z,15.10
2023-02-28T16:45:51.945Z,13.35
2023-02-28T16:48:20.147Z,13.57
2023-02-28T16:50:48.390Z,16.83
2023-02-28T16:53:16.704Z,14.07
2023-02-28T16:55:45.280Z,15.48
2023-02-28T16:58:17.127Z,16.80
2023-02-28T17:00:46.891Z,16.05
2023-02-28T17:03:32.818Z,16.45
2023-02-28T17:06:02.188Z,17.02
2023-02-28T17:08:30.819Z,16.42
2023-02-28T17:10:59.189Z,15.98
2023-02-28T17:13:27.470Z,14.57
2023-02-28T17:15:57.208Z,15.95
2023-02-28T17:18:25.659Z,14.95
2023-02-28T17:20:53.909Z,17.40
2023-02-28T17:23:22.177Z,14.13
2023-02-28T17:25:57.806Z,14.57
2023-02-28T17:28:26.485Z,14.63
2023-02-28T17:30:56.120Z,14.75
2023-02-28T17:33:24.389Z,13.70
2023-02-28T17:35:52.783Z,15.43
2023-02-28T17:38:24.006Z,16.90
2023-02-28T17:40:57.960Z,13.63
2023-02-28T17:43:26.733Z,17.73
2023-02-28T17:45:56.824Z,16.90
2023-02-28T17:48:25.032Z,17.05
2023-02-28T17:50:53.304Z,18.65
2023-02-28T17:53:23.997Z,17.95
2023-02-28T17:55:52.551Z,18.23
2023-02-28T17:58:22.167Z,18.02
2023-02-28T18:00:54.868Z,19.48
2023-02-28T18:03:25.242Z,17.98
2023-02-28T18:05:53.788Z,20.65
2023-02-28T18:08:22.062Z,19.88
2023-02-28T18:10:50.506Z,20.63
2023-02-28T18:13:18.662Z,19.42
2023-02-28T18:15:48.443Z,22.02
2023-02-28T18:18:17.287Z,120.00
2023-02-28T18:20:49.437Z,179.88
2023-02-28T18:23:18.428Z,183.10
2023-02-28T18:25:46.640Z,156.20
2023-02-28T18:28:14.820Z,162.98
2023-02-28T18:30:43.237Z,132.32
2023-02-28T18:33:11.458Z,155.15
2023-02-28T18:35:40.046Z,109.55
2023-02-28T18:38:13.890Z,84.07
2023-02-28T18:40:43.249Z,89.22
2023-02-28T18:43:11.474Z,177.13
2023-02-28T18:45:40.451Z,286.13
2023-02-28T18:48:08.733Z,155.20
2023-02-28T18:50:39.106Z,166.80
2023-02-28T18:53:07.451Z,154.07
2023-02-28T18:55:37.648Z,128.07
2023-02-28T18:58:06.129Z,119.75
2023-02-28T19:00:34.584Z,104.25
2023-02-28T19:03:03.024Z,80.15
2023-02-28T19:05:34.372Z,109.05
2023-02-28T19:08:03.174Z,85.07
2023-02-28T19:10:31.417Z,107.50
2023-02-28T19:13:01.565Z,174.05
2023-02-28T19:15:29.884Z,225.57
2023-02-28T19:17:58.095Z,222.98
2023-02-28T19:20:26.412Z,191.77
2023-02-28T19:22:54.679Z,184.77
2023-02-28T19:25:24.085Z,128.23
2023-02-28T19:27:53.781Z,108.80
2023-02-28T19:30:24.970Z,80.03
2023-02-28T19:32:53.248Z,74.93
2023-02-28T19:35:21.518Z,102.15
2023-02-28T19:37:50.734Z,116.80
2023-02-28T19:40:19.351Z,94.70
2023-02-28T19:42:47.624Z,241.77
2023-02-28T19:45:15.970Z,233.57
2023-02-28T19:47:45.701Z,157.32
2023-02-28T19:50:13.908Z,103.95
2023-02-28T19:52:43.359Z,89.70
2023-02-28T19:55:12.187Z,77.60
2023-02-28T19:57:40.437Z,67.38
2023-02-28T20:00:10.127Z,55.22
2023-02-28T20:02:41.547Z,40.78
2023-02-28T20:05:23.327Z,39.83
2023-02-28T20:10:21.062Z,26.88
2023-02-28T20:12:49.298Z,24.60
2023-02-28T20:15:17.745Z,23.02
2023-02-28T20:17:46.845Z,23.15
2023-02-28T20:20:15.225Z,23.80
2023-02-28T20:22:43.469Z,22.45
2023-02-28T20:26:02.004Z,24.52
2023-02-28T20:28:42.025Z,23.85
2023-02-28T20:31:13.927Z,23.25
2023-02-28T20:33:44.396Z,24.67
2023-02-28T20:38:44.292Z,22.70
2023-02-28T20:41:14.723Z,22.92
2023-02-28T20:43:43.455Z,21.83
2023-02-28T20:46:11.784Z,22.42
2023-02-28T20:48:40.723Z,20.23
2023-02-28T20:51:09.233Z,22.23
2023-02-28T20:53:37.662Z,20.35
2023-02-28T20:56:08.963Z,21.00
2023-02-28T20:58:39.364Z,22.00
2023-02-28T21:01:12.817Z,20.13
2023-02-28T21:03:41.258Z,22.10
2023-02-28T21:06:09.470Z,20.63
2023-02-28T21:08:38.867Z,23.10
2023-02-28T21:11:11.313Z,18.50
2023-02-28T21:13:42.219Z,19.35
2023-02-28T21:16:12.009Z,20.17
2023-02-28T21:18:40.688Z,19.05
2023-02-28T21:21:10.756Z,22.02
2023-02-28T21:23:39.412Z,20.60
2023-02-28T21:26:14.104Z,20.75
2023-02-28T21:28:44.946Z,19.02
2023-02-28T21:31:15.759Z,21.92
2023-02-28T21:33:44.578Z,19.13
2023-02-28T21:36:15.582Z,21.08
2023-02-28T21:38:45.322Z,19.75
2023-02-28T21:41:15.035Z,20.35
2023-02-28T21:43:45.399Z,20.33
2023-02-28T21:46:15.975Z,18.95
2023-02-28T21:48:45.094Z,23.77
2023-02-28T21:51:15.105Z,20.65
2023-02-28T21:53:44.118Z,20.70
2023-02-28T21:56:14.874Z,21.50
2023-02-28T21:59:07.129Z,19.35
2023-02-28T22:01:38.011Z,18.73
2023-02-28T22:04:08.040Z,19.98
2023-02-28T22:06:38.250Z,20.25
2023-02-28T22:09:08.717Z,18.50
2023-02-28T22:11:39.070Z,19.38
2023-02-28T22:14:12.326Z,19.67
2023-02-28T22:16:51.407Z,19.33
2023-02-28T22:19:21.519Z,19.05
2023-02-28T22:21:50.374Z,17.85
2023-02-28T22:24:20.721Z,19.25
2023-02-28T22:26:50.220Z,19.52
2023-02-28T22:29:20.000Z,18.95
2023-02-28T22:31:48.529Z,17.92
2023-02-28T22:34:17.062Z,18.00
2023-02-28T22:36:45.321Z,20.42
2023-02-28T22:39:13.832Z,18.73
2023-02-28T22:41:42.080Z,19.95
2023-02-28T22:44:10.386Z,21.50
2023-02-28T22:46:40.295Z,17.10
2023-02-28T22:49:08.723Z,16.90
2023-02-28T22:51:36.997Z,17.02
2023-02-28T22:54:05.776Z,21.77
2023-02-28T22:56:34.388Z,21.35
2023-02-28T22:59:03.097Z,18.10
2023-02-28T23:01:33.927Z,17.05
2023-02-28T23:04:03.890Z,17.83
2023-02-28T23:06:34.564Z,19.55
2023-02-28T23:09:05.849Z,20.23
2023-02-28T23:11:35.557Z,20.20
2023-02-28T23:14:04.177Z,20.00
2023-02-28T23:16:36.222Z,18.75
2023-02-28T23:19:07.480Z,19.95
2023-02-28T23:21:36.476Z,20.98
2023-02-28T23:24:10.600Z,21.67
2023-02-28T23:26:40.171Z,17.02
2023-02-28T23:29:08.935Z,17.23
2023-02-28T23:31:37.648Z,20.55
2023-02-28T23:34:07.751Z,19.17
2023-02-28T23:36:36.074Z,20.05
2023-02-28T23:39:04.404Z,17.17
2023-02-28T23:41:32.903Z,19.05
2023-02-28T23:44:01.172Z,17.25
2023-02-28T23:46:29.677Z,19.05
2023-02-28T23:48:59.338Z,19.33
2023-02-28T23:51:28.955Z,21.08
2023-02-28T23:53:57.114Z,21.13
2023-02-28T23:56:25.965Z,20.13
2023-02-28T23:58:56.346Z,19.33
